Time;durP1;ratioP1;P1;durP2;ratioP2;P2;SDS_P1;SDS_P2;PMS_P1;PMS_P2;Temp;Humidity;BMP_temperature;BMP_pressure;BME280_temperature;BME280_humidity;BME280_pressure;Samples;Min_cycle;Max_cycle;Signal;HPM_P1;HPM_P2
2023/08/24 00:00:06;;;;;;;;;;;22.40;99.90;;;;;;5053506;28;19933;-71
2023/08/24 00:02:33;;;;;;;;;;;22.50;99.90;;;;;;5060804;28;19928;-70
2023/08/24 00:05:01;;;;;;;;;;;22.60;99.90;;;;;;5054310;28;19925;-70
2023/08/24 00:07:29;;;;;;;;;;;22.70;99.90;;;;;;5053647;28;20407;-70
2023/08/24 00:09:57;;;;;;;;;;;22.50;99.90;;;;;;5053388;28;19925;-70
2023/08/24 00:12:26;;;;;;;;;;;22.40;99.90;;;;;;5053500;28;19929;-70
2023/08/24 00:14:54;;;;;;;;;;;22.40;99.90;;;;;;5053190;28;19925;-70
2023/08/24 00:17:22;;;;;;;;;;;22.50;99.90;;;;;;5053539;28;19924;-70
2023/08/24 00:19:50;;;;;;;;;;;22.50;99.90;;;;;;5053110;28;19924;-71
2023/08/24 00:22:18;;;;;;;;;;;22.50;99.90;;;;;;5053418;28;20391;-71
2023/08/24 00:24:46;;;;;;;;;;;22.40;99.90;;;;;;5053422;28;19929;-70
2023/08/24 00:27:14;;;;;;;;;;;22.20;99.90;;;;;;5056367;28;19928;-68
2023/08/24 00:29:44;;;;;;;;;;;22.30;99.90;;;;;;5053791;28;19931;-69
2023/08/24 00:32:12;;;;;;;;;;;22.40;99.90;;;;;;5057077;28;19932;-69
2023/08/24 00:34:41;;;;;;;;;;;22.30;99.90;;;;;;5051932;28;19978;-69
2023/08/24 00:37:08;;;;;;;;;;;22.30;99.90;;;;;;5053022;28;20311;-68
2023/08/24 00:39:37;;;;;;;;;;;22.20;99.90;;;;;;5053321;28;19929;-69
2023/08/24 00:42:05;;;;;;;;;;;22.00;99.90;;;;;;5053104;28;19924;-69
2023/08/24 00:44:33;;;;;;;;;;;22.10;99.90;;;;;;5053542;28;20334;-68
2023/08/24 00:47:03;;;;;;;;;;;22.10;99.90;;;;;;5053396;28;20419;-69
2023/08/24 00:49:30;;;;;;;;;;;22.30;99.90;;;;;;5053577;28;19929;-70
2023/08/24 00:51:58;;;;;;;;;;;22.20;99.90;;;;;;5046801;28;19936;-69
2023/08/24 00:54:26;;;;;;;;;;;22.20;99.90;;;;;;5052455;28;20005;-69
2023/08/24 00:56:55;;;;;;;;;;;22.40;99.90;;;;;;5052593;28;19925;-70
2023/08/24 00:59:23;;;;;;;;;;;22.40;99.90;;;;;;5052261;28;19925;-70
2023/08/24 01:01:51;;;;;;;;;;;22.50;99.90;;;;;;5068606;28;19931;-70
2023/08/24 01:04:21;;;;;;;;;;;22.50;99.90;;;;;;5060113;28;20298;-70
2023/08/24 01:06:49;;;;;;;;;;;22.70;99.90;;;;;;5052247;28;19933;-70
2023/08/24 01:09:17;;;;;;;;;;;22.60;99.90;;;;;;5044622;28;19925;-71
2023/08/24 01:11:49;;;;;;;;;;;22.60;99.90;;;;;;5052174;28;19925;-70
2023/08/24 01:14:22;;;;;;;;;;;22.60;99.90;;;;;;5052261;28;19931;-70
2023/08/24 01:16:51;;;;;;;;;;;22.60;99.90;;;;;;5052261;28;19925;-70
2023/08/24 01:19:26;;;;;;;;;;;22.50;99.90;;;;;;5044266;28;20447;-71
2023/08/24 01:21:55;;;;;;;;;;;22.40;99.90;;;;;;5051597;28;19932;-71
2023/08/24 01:24:29;;;;;;;;;;;22.40;99.90;;;;;;5049563;28;20406;-70
2023/08/24 01:26:58;;;;;;;;;;;22.40;99.90;;;;;;5049398;28;19925;-70
2023/08/24 01:29:26;;;;;;;;;;;22.70;99.90;;;;;;5052295;28;19962;-71
2023/08/24 01:31:54;;;;;;;;;;;22.50;99.90;;;;;;5068106;28;19958;-70
2023/08/24 01:34:22;;;;;;;;;;;22.40;99.90;;;;;;5051851;28;19924;-69
2023/08/24 01:36:50;;;;;;;;;;;22.60;99.90;;;;;;5051793;28;19931;-70
2023/08/24 01:39:21;;;;;;;;;;;22.50;99.90;;;;;;5051362;28;19925;-69
2023/08/24 01:41:51;;;;;;;;;;;22.40;99.90;;;;;;5045526;28;20388;-69
2023/08/24 01:44:22;;;;;;;;;;;22.40;99.90;;;;;;5043403;28;19928;-70
2023/08/24 01:46:50;;;;;;;;;;;22.40;99.90;;;;;;5051686;28;19924;-70
2023/08/24 01:49:18;;;;;;;;;;;22.50;99.90;;;;;;5050703;28;19925;-70
2023/08/24 01:51:47;;;;;;;;;;;22.50;99.90;;;;;;5051392;28;20007;-70
2023/08/24 01:54:14;;;;;;;;;;;22.60;99.90;;;;;;5051423;28;19933;-69
2023/08/24 01:56:42;;;;;;;;;;;22.50;99.90;;;;;;5051791;28;19936;-70
2023/08/24 01:59:10;;;;;;;;;;;22.40;99.90;;;;;;5044165;28;19929;-69
2023/08/24 02:01:39;;;;;;;;;;;22.20;99.90;;;;;;5057199;28;19990;-70
2023/08/24 02:04:07;;;;;;;;;;;22.10;99.90;;;;;;5052932;28;20372;-70
2023/08/24 02:06:35;;;;;;;;;;;22.10;99.90;;;;;;5051143;28;19925;-70
2023/08/24 02:09:03;;;;;;;;;;;22.00;99.90;;;;;;5051164;28;19947;-70
2023/08/24 02:11:31;;;;;;;;;;;22.00;99.90;;;;;;5051241;28;19925;-70
2023/08/24 02:13:59;;;;;;;;;;;21.90;99.90;;;;;;5050978;28;19925;-69
2023/08/24 02:16:27;;;;;;;;;;;21.70;99.90;;;;;;5044061;28;19932;-70
2023/08/24 02:18:56;;;;;;;;;;;21.60;99.90;;;;;;5051025;28;19925;-70
2023/08/24 02:21:24;;;;;;;;;;;21.40;99.90;;;;;;5043137;28;19924;-70
2023/08/24 02:23:52;;;;;;;;;;;21.40;99.90;;;;;;5051156;28;19932;-70
2023/08/24 02:26:20;;;;;;;;;;;21.40;99.90;;;;;;5050957;28;20407;-69
2023/08/24 02:28:48;;;;;;;;;;;21.40;99.90;;;;;;5051559;28;19929;-70
2023/08/24 02:31:16;;;;;;;;;;;21.40;99.90;;;;;;5061324;28;19924;-70
2023/08/24 02:33:44;;;;;;;;;;;21.20;99.90;;;;;;5054031;28;20391;-70
2023/08/24 02:36:13;;;;;;;;;;;21.10;99.90;;;;;;5051102;28;19990;-69
2023/08/24 02:38:41;;;;;;;;;;;21.20;99.90;;;;;;5050933;28;20395;-70
2023/08/24 02:41:10;;;;;;;;;;;21.10;99.90;;;;;;5050574;28;19925;-70
2023/08/24 02:43:38;;;;;;;;;;;21.10;99.90;;;;;;5051393;28;19956;-70
2023/08/24 02:46:07;;;;;;;;;;;21.00;99.90;;;;;;5050764;28;19928;-70
2023/08/24 02:48:35;;;;;;;;;;;21.10;99.90;;;;;;5050988;28;19931;-69
2023/08/24 02:51:04;;;;;;;;;;;21.10;99.90;;;;;;5043331;28;19975;-70
2023/08/24 02:53:33;;;;;;;;;;;21.00;99.90;;;;;;5043736;28;19931;-70
2023/08/24 02:56:01;;;;;;;;;;;20.90;99.90;;;;;;5058819;28;19960;-70
2023/08/24 02:58:29;;;;;;;;;;;20.80;99.90;;;;;;5050596;28;19972;-69
2023/08/24 03:00:57;;;;;;;;;;;20.60;99.90;;;;;;5061268;28;19924;-70
2023/08/24 03:03:25;;;;;;;;;;;20.80;99.90;;;;;;5071105;28;20376;-71
2023/08/24 03:05:54;;;;;;;;;;;21.00;99.90;;;;;;5054490;28;20415;-70
2023/08/24 03:08:22;;;;;;;;;;;20.90;99.90;;;;;;5054459;28;19928;-70
2023/08/24 03:10:51;;;;;;;;;;;20.90;99.90;;;;;;5054115;28;19971;-70
2023/08/24 03:13:19;;;;;;;;;;;20.90;99.90;;;;;;5054384;28;19932;-70
2023/08/24 03:15:47;;;;;;;;;;;20.90;99.90;;;;;;5054428;28;19925;-70
2023/08/24 03:18:16;;;;;;;;;;;20.90;99.90;;;;;;5054216;28;19932;-69
2023/08/24 03:20:44;;;;;;;;;;;21.10;99.90;;;;;;5054005;28;19931;-70
2023/08/24 03:23:12;;;;;;;;;;;21.40;99.90;;;;;;5053272;28;19933;-70
2023/08/24 03:25:40;;;;;;;;;;;21.40;99.90;;;;;;5054358;28;19925;-71
2023/08/24 03:28:10;;;;;;;;;;;21.50;99.90;;;;;;5054124;28;19925;-70
2023/08/24 03:30:39;;;;;;;;;;;21.40;99.90;;;;;;5058711;28;19931;-70
2023/08/24 03:33:06;;;;;;;;;;;21.40;99.90;;;;;;5065282;28;19925;-70
2023/08/24 03:35:34;;;;;;;;;;;21.40;99.90;;;;;;5053883;28;19925;-70
2023/08/24 03:38:03;;;;;;;;;;;21.30;99.90;;;;;;5054289;28;19936;-70
2023/08/24 03:40:31;;;;;;;;;;;21.30;99.90;;;;;;5042281;28;19960;-70
2023/08/24 03:42:59;;;;;;;;;;;21.10;99.90;;;;;;5049929;28;19975;-70
2023/08/24 03:45:28;;;;;;;;;;;21.10;99.90;;;;;;5053717;28;19925;-70
2023/08/24 03:47:56;;;;;;;;;;;21.10;99.90;;;;;;5054408;28;19925;-70
2023/08/24 03:50:24;;;;;;;;;;;21.00;99.90;;;;;;5052981;28;19999;-70
2023/08/24 03:52:55;;;;;;;;;;;20.80;99.90;;;;;;5081038;22;19929;31
2023/08/24 03:55:22;;;;;;;;;;;20.50;99.90;;;;;;5008998;28;20389;-69
2023/08/24 03:57:51;;;;;;;;;;;20.50;99.90;;;;;;5001826;28;19974;-68
2023/08/24 04:00:19;;;;;;;;;;;20.50;99.90;;;;;;5010065;28;19925;-69
2023/08/24 04:02:48;;;;;;;;;;;20.30;99.90;;;;;;5004176;28;19977;-69
2023/08/24 04:05:17;;;;;;;;;;;20.30;99.90;;;;;;4993057;28;19940;-69
2023/08/24 04:07:45;;;;;;;;;;;20.30;99.90;;;;;;4982573;28;19933;-70
2023/08/24 04:10:13;;;;;;;;;;;20.30;99.90;;;;;;4988492;28;19925;-68
2023/08/24 04:12:40;;;;;;;;;;;20.20;99.90;;;;;;4989379;28;19933;-68
2023/08/24 04:15:10;;;;;;;;;;;20.10;99.90;;;;;;4986219;28;19926;-68
2023/08/24 04:17:37;;;;;;;;;;;20.00;99.90;;;;;;4988201;28;19925;-67
2023/08/24 04:20:09;;;;;;;;;;;19.80;99.90;;;;;;4985664;28;20467;-67
2023/08/24 04:22:37;;;;;;;;;;;19.80;99.90;;;;;;4985986;28;19942;-67
2023/08/24 04:25:05;;;;;;;;;;;19.70;99.90;;;;;;4985482;28;19934;-68
2023/08/24 04:27:33;;;;;;;;;;;19.70;99.90;;;;;;4983504;28;20297;-67
2023/08/24 04:30:01;;;;;;;;;;;19.90;99.90;;;;;;4985136;28;19930;-67
2023/08/24 04:32:29;;;;;;;;;;;19.90;99.90;;;;;;4984656;28;20455;-67
2023/08/24 04:34:57;;;;;;;;;;;19.90;99.90;;;;;;4985582;28;20435;-67
2023/08/24 04:37:26;;;;;;;;;;;19.80;99.90;;;;;;4982914;28;19934;-67
2023/08/24 04:39:54;;;;;;;;;;;19.80;99.90;;;;;;4984549;28;19933;-67
2023/08/24 04:42:22;;;;;;;;;;;19.80;99.90;;;;;;4985347;28;19937;-68
2023/08/24 04:44:51;;;;;;;;;;;19.80;99.90;;;;;;4985521;28;19945;-67
2023/08/24 04:47:19;;;;;;;;;;;19.80;99.90;;;;;;4982562;28;19934;-67
2023/08/24 04:49:47;;;;;;;;;;;19.60;99.90;;;;;;4984323;28;19957;-68
2023/08/24 04:52:15;;;;;;;;;;;19.70;99.90;;;;;;4984989;28;19930;-69
2023/08/24 04:54:44;;;;;;;;;;;20.10;99.90;;;;;;4998559;28;20344;-68
2023/08/24 04:57:11;;;;;;;;;;;20.60;99.90;;;;;;5000805;28;19929;-68
2023/08/24 04:59:39;;;;;;;;;;;20.70;99.90;;;;;;5002473;28;19976;-69
2023/08/24 05:02:07;;;;;;;;;;;20.70;99.90;;;;;;5001263;28;19929;-67
2023/08/24 05:04:35;;;;;;;;;;;20.60;99.90;;;;;;5000527;28;20048;-68
2023/08/24 05:07:03;;;;;;;;;;;20.40;99.90;;;;;;5001301;28;19940;-69
2023/08/24 05:09:31;;;;;;;;;;;20.50;99.90;;;;;;5002546;28;19936;-67
2023/08/24 05:12:00;;;;;;;;;;;20.50;99.90;;;;;;5001614;28;19933;-69
2023/08/24 05:14:28;;;;;;;;;;;20.60;99.90;;;;;;5000358;28;20000;-69
2023/08/24 05:16:56;;;;;;;;;;;20.70;99.90;;;;;;4999640;28;19934;-69
2023/08/24 05:19:25;;;;;;;;;;;20.70;99.90;;;;;;5000729;28;22776;-67
2023/08/24 05:21:56;;;;;;;;;;;20.70;99.90;;;;;;5001542;28;20439;-67
2023/08/24 05:24:24;;;;;;;;;;;20.80;99.90;;;;;;5001530;28;20644;-68
2023/08/24 05:26:52;;;;;;;;;;;21.10;99.90;;;;;;5000814;28;19991;-67
2023/08/24 05:29:21;;;;;;;;;;;21.50;99.90;;;;;;5000627;28;19984;-67
2023/08/24 05:31:48;;;;;;;;;;;21.60;99.90;;;;;;5001602;28;20027;-67
2023/08/24 05:34:16;;;;;;;;;;;21.70;99.90;;;;;;5000881;28;20019;-67
2023/08/24 05:36:44;;;;;;;;;;;21.90;99.90;;;;;;5000387;28;19936;-67
2023/08/24 05:39:12;;;;;;;;;;;22.30;99.90;;;;;;4999184;28;19995;-69
2023/08/24 05:41:40;;;;;;;;;;;22.40;99.90;;;;;;4999172;28;19933;-68
2023/08/24 05:44:08;;;;;;;;;;;22.50;99.90;;;;;;5001997;28;19937;-68
2023/08/24 05:46:37;;;;;;;;;;;22.50;99.90;;;;;;4999287;28;19983;-67
2023/08/24 05:49:05;;;;;;;;;;;22.50;99.90;;;;;;5002727;28;19940;-68
2023/08/24 05:51:32;;;;;;;;;;;22.40;99.90;;;;;;5001162;28;20720;-67
2023/08/24 05:54:00;;;;;;;;;;;22.50;99.90;;;;;;5000515;28;20336;-67
2023/08/24 05:56:28;;;;;;;;;;;22.40;99.90;;;;;;4998003;28;20396;-68
2023/08/24 05:58:58;;;;;;;;;;;22.50;99.90;;;;;;5001847;28;19925;-69
2023/08/24 06:01:26;;;;;;;;;;;22.30;99.90;;;;;;5008529;28;19925;-68
2023/08/24 06:03:55;;;;;;;;;;;22.40;99.90;;;;;;5003662;28;20504;-68
2023/08/24 06:06:23;;;;;;;;;;;22.60;99.90;;;;;;5008558;28;19925;-68
2023/08/24 06:08:50;;;;;;;;;;;22.60;99.90;;;;;;4996543;28;19926;-69
2023/08/24 06:11:19;;;;;;;;;;;22.60;99.90;;;;;;5005272;28;19965;-69
2023/08/24 06:13:46;;;;;;;;;;;22.60;99.90;;;;;;5001901;28;19925;-70
2023/08/24 06:16:14;;;;;;;;;;;22.80;99.90;;;;;;5011753;28;19932;-68
2023/08/24 06:18:42;;;;;;;;;;;22.70;99.90;;;;;;5007968;28;19998;-68
2023/08/24 06:21:11;;;;;;;;;;;22.50;99.90;;;;;;5005418;28;19937;-68
2023/08/24 06:23:39;;;;;;;;;;;22.20;99.90;;;;;;5004701;28;20184;-68
2023/08/24 06:26:06;;;;;;;;;;;22.10;99.90;;;;;;4996845;28;19932;-68
2023/08/24 06:28:34;;;;;;;;;;;22.00;99.90;;;;;;5001931;28;19929;-68
2023/08/24 06:31:02;;;;;;;;;;;21.90;99.90;;;;;;4997359;28;19980;-68
2023/08/24 06:33:30;;;;;;;;;;;21.80;99.90;;;;;;5001038;28;20004;-68
2023/08/24 06:35:58;;;;;;;;;;;21.60;99.90;;;;;;5015421;28;19980;-68
2023/08/24 06:38:28;;;;;;;;;;;21.40;99.90;;;;;;5015545;28;20347;-68
2023/08/24 06:40:56;;;;;;;;;;;21.20;99.90;;;;;;5015391;28;19926;-68
2023/08/24 06:43:24;;;;;;;;;;;21.00;99.90;;;;;;5015252;28;20376;-68
2023/08/24 06:45:52;;;;;;;;;;;20.80;99.90;;;;;;5015194;28;19926;-67
2023/08/24 06:48:19;;;;;;;;;;;20.70;99.90;;;;;;5015712;28;20392;-67
2023/08/24 06:50:47;;;;;;;;;;;20.70;99.90;;;;;;5007157;28;20277;-67
2023/08/24 06:53:15;;;;;;;;;;;20.70;99.90;;;;;;5015072;28;19984;-68
2023/08/24 06:55:44;;;;;;;;;;;20.80;99.90;;;;;;5014946;28;19933;-67
2023/08/24 06:58:12;;;;;;;;;;;20.90;99.90;;;;;;5015391;28;19980;-68
2023/08/24 07:00:40;;;;;;;;;;;21.10;99.90;;;;;;5004667;28;19984;-68
2023/08/24 07:03:08;;;;;;;;;;;21.30;99.90;;;;;;5001547;28;19932;-68
2023/08/24 07:05:36;;;;;;;;;;;21.40;99.90;;;;;;5014797;28;19930;-67
2023/08/24 07:08:04;;;;;;;;;;;21.50;99.90;;;;;;5015092;28;19925;-68
2023/08/24 07:10:32;;;;;;;;;;;21.60;99.90;;;;;;5014713;28;20388;-68
2023/08/24 07:13:02;;;;;;;;;;;21.60;99.90;;;;;;5014935;28;20501;-68
2023/08/24 07:15:29;;;;;;;;;;;21.60;99.90;;;;;;5014662;28;19933;-68
2023/08/24 07:17:57;;;;;;;;;;;21.50;99.90;;;;;;5015300;28;19972;-68
2023/08/24 07:20:25;;;;;;;;;;;21.40;99.90;;;;;;5014740;28;19926;-67
2023/08/24 07:22:53;;;;;;;;;;;21.30;99.90;;;;;;5014779;28;19929;-68
2023/08/24 07:25:21;;;;;;;;;;;21.20;99.90;;;;;;5014858;28;19926;-68
2023/08/24 07:27:49;;;;;;;;;;;21.20;99.90;;;;;;5014313;28;19932;-68
2023/08/24 07:30:19;;;;;;;;;;;21.20;99.90;;;;;;5007555;28;19926;-68
2023/08/24 07:33:00;;;;;;;;;;;21.30;99.90;;;;;;4999673;28;19929;-68
2023/08/24 07:35:29;;;;;;;;;;;21.40;99.90;;;;;;5014529;28;19972;-68
2023/08/24 07:37:56;;;;;;;;;;;21.40;99.90;;;;;;5014505;28;19962;-68
2023/08/24 07:40:25;;;;;;;;;;;21.50;99.90;;;;;;5014843;28;19929;-67
2023/08/24 07:42:55;;;;;;;;;;;21.40;99.90;;;;;;5014430;28;19927;-68
2023/08/24 07:45:24;;;;;;;;;;;21.30;99.90;;;;;;5013436;28;19976;-67
2023/08/24 07:47:53;;;;;;;;;;;21.30;99.90;;;;;;5014301;28;19925;-68
2023/08/24 07:50:22;;;;;;;;;;;21.30;99.90;;;;;;5014281;28;19925;-68
2023/08/24 07:52:50;;;;;;;;;;;21.20;99.90;;;;;;5014265;28;20309;-68
2023/08/24 07:55:17;;;;;;;;;;;21.20;99.90;;;;;;5014104;28;19932;-68
2023/08/24 07:57:47;;;;;;;;;;;21.10;99.90;;;;;;5014012;28;19925;-68
2023/08/24 08:00:16;;;;;;;;;;;21.00;99.90;;;;;;5007699;28;20017;-68
2023/08/24 08:02:45;;;;;;;;;;;20.90;99.90;;;;;;4996364;28;19926;-68
2023/08/24 08:05:13;;;;;;;;;;;20.80;99.90;;;;;;5013849;28;20308;-68
2023/08/24 08:07:41;;;;;;;;;;;20.70;99.90;;;;;;5013612;28;19949;-68
2023/08/24 08:10:09;;;;;;;;;;;20.70;99.90;;;;;;5013756;28;20156;-68
2023/08/24 08:12:37;;;;;;;;;;;20.70;99.90;;;;;;5013721;28;19926;-67
2023/08/24 08:15:05;;;;;;;;;;;20.70;99.90;;;;;;5013731;28;20015;-68
2023/08/24 08:17:33;;;;;;;;;;;20.80;99.90;;;;;;5013675;28;19926;-68
2023/08/24 08:20:03;;;;;;;;;;;20.80;99.90;;;;;;5013704;28;19926;-68
2023/08/24 08:22:35;;;;;;;;;;;20.80;99.90;;;;;;5013321;28;19937;-68
2023/08/24 08:25:04;;;;;;;;;;;20.90;99.90;;;;;;5013689;28;19979;-68
2023/08/24 08:27:32;;;;;;;;;;;21.00;99.90;;;;;;5013638;28;19932;-67
2023/08/24 08:30:00;;;;;;;;;;;21.20;99.90;;;;;;5009592;28;19930;-67
2023/08/24 08:32:28;;;;;;;;;;;21.30;99.90;;;;;;4993730;28;19984;-68
2023/08/24 08:34:56;;;;;;;;;;;21.50;99.90;;;;;;5013178;28;19925;-67
2023/08/24 08:37:26;;;;;;;;;;;21.60;99.90;;;;;;5013498;28;19925;-68
2023/08/24 08:39:53;;;;;;;;;;;21.60;99.90;;;;;;5013142;28;19925;-68
2023/08/24 08:42:21;;;;;;;;;;;21.70;99.90;;;;;;5013144;28;19968;-68
2023/08/24 08:44:49;;;;;;;;;;;21.80;99.90;;;;;;5012948;28;19925;-68
2023/08/24 08:47:21;;;;;;;;;;;21.80;99.90;;;;;;5013486;28;19929;-68
2023/08/24 08:49:49;;;;;;;;;;;21.70;99.90;;;;;;5012978;28;19932;-67
2023/08/24 08:52:17;;;;;;;;;;;21.70;99.90;;;;;;5012992;28;19926;-68
2023/08/24 08:54:46;;;;;;;;;;;21.70;99.90;;;;;;5012715;28;20381;-68
2023/08/24 08:57:16;;;;;;;;;;;21.70;99.90;;;;;;5013062;28;20372;-68
2023/08/24 08:59:44;;;;;;;;;;;22.00;99.90;;;;;;5011402;28;19939;-70
2023/08/24 09:02:14;;;;;;;;;;;22.40;99.90;;;;;;4993358;28;19980;-68
2023/08/24 09:04:42;;;;;;;;;;;22.80;99.90;;;;;;5010398;28;19963;-67
2023/08/24 09:07:12;;;;;;;;;;;23.10;99.90;;;;;;5012960;28;20300;-68
2023/08/24 09:09:40;;;;;;;;;;;23.50;99.90;;;;;;5012742;28;19929;-68
2023/08/24 09:12:10;;;;;;;;;;;23.70;99.90;;;;;;5012377;28;19929;-68
2023/08/24 09:14:37;;;;;;;;;;;24.00;99.90;;;;;;5012522;28;19987;-68
2023/08/24 09:17:05;;;;;;;;;;;24.30;99.90;;;;;;5012859;28;19925;-68
2023/08/24 09:19:35;;;;;;;;;;;24.60;99.90;;;;;;5012706;28;20388;-68
2023/08/24 09:22:03;;;;;;;;;;;24.80;99.90;;;;;;5012278;28;19932;-69
2023/08/24 09:24:35;;;;;;;;;;;25.10;99.90;;;;;;5012399;28;19936;-68
2023/08/24 09:27:14;;;;;;;;;;;25.30;99.90;;;;;;5012757;28;20001;-68
2023/08/24 09:29:43;;;;;;;;;;;25.30;99.90;;;;;;5011588;28;19925;-68
2023/08/24 09:32:11;;;;;;;;;;;25.40;99.90;;;;;;4992531;28;19930;-68
2023/08/24 09:34:39;;;;;;;;;;;25.50;99.90;;;;;;5008955;28;19925;-68
2023/08/24 09:37:13;;;;;;;;;;;25.80;99.90;;;;;;5012427;28;19933;-68
2023/08/24 09:39:41;;;;;;;;;;;26.10;99.90;;;;;;5012403;28;19930;-68
2023/08/24 09:42:09;;;;;;;;;;;26.20;99.90;;;;;;5012060;28;19929;-68
2023/08/24 09:44:37;;;;;;;;;;;26.50;99.90;;;;;;5012107;28;19930;-68
2023/08/24 09:47:11;;;;;;;;;;;26.60;99.90;;;;;;5004366;28;19926;-68
2023/08/24 09:49:39;;;;;;;;;;;26.80;99.90;;;;;;5012075;28;19929;-68
2023/08/24 09:52:07;;;;;;;;;;;26.80;99.90;;;;;;5011894;28;20304;-69
2023/08/24 09:54:37;;;;;;;;;;;27.00;99.90;;;;;;5057755;22;19971;-66
2023/08/24 09:57:06;;;;;;;;;;;27.10;99.90;;;;;;5031543;28;19926;-66
2023/08/24 09:59:35;;;;;;;;;;;27.30;99.90;;;;;;5039300;28;19925;-67
2023/08/24 10:02:03;;;;;;;;;;;27.40;99.90;;;;;;5031149;28;19933;-67
2023/08/24 10:04:34;;;;;;;;;;;27.20;99.90;;;;;;5038513;28;19924;-67
2023/08/24 10:07:05;;;;;;;;;;;27.10;99.90;;;;;;5051361;28;20372;-67
2023/08/24 10:09:36;;;;;;;;;;;27.10;99.90;;;;;;5051193;28;19932;-67
2023/08/24 10:12:05;;;;;;;;;;;27.30;99.90;;;;;;5051013;28;19960;-67
2023/08/24 10:14:35;;;;;;;;;;;27.60;99.90;;;;;;5051245;28;19925;-67
2023/08/24 10:17:04;;;;;;;;;;;28.00;99.90;;;;;;5051172;28;19924;-67
2023/08/24 10:19:33;;;;;;;;;;;28.00;99.90;;;;;;5051416;28;19928;-66
2023/08/24 10:22:01;;;;;;;;;;;28.20;99.90;;;;;;5051089;28;20367;-66
2023/08/24 10:24:30;;;;;;;;;;;28.20;99.90;;;;;;5051039;28;20383;-67
2023/08/24 10:26:58;;;;;;;;;;;28.30;99.90;;;;;;5051063;28;19929;-67
2023/08/24 10:29:28;;;;;;;;;;;28.30;99.90;;;;;;5051625;28;19929;-67
2023/08/24 10:31:57;;;;;;;;;;;28.30;99.90;;;;;;5050569;28;19971;-67
2023/08/24 10:34:25;;;;;;;;;;;28.40;99.90;;;;;;5051055;28;19924;-67
2023/08/24 10:36:54;;;;;;;;;;;28.50;99.90;;;;;;5051082;28;20461;-67
2023/08/24 10:39:28;;;;;;;;;;;28.70;99.90;;;;;;5051147;28;19929;-67
2023/08/24 10:41:56;;;;;;;;;;;29.00;99.90;;;;;;5050584;28;19925;-66
2023/08/24 10:44:25;;;;;;;;;;;29.00;99.90;;;;;;5050883;28;19939;-67
2023/08/24 10:47:08;;;;;;;;;;;29.00;99.90;;;;;;5051074;28;19925;-66
2023/08/24 10:49:36;;;;;;;;;;;29.20;99.90;;;;;;5051014;28;20399;-67
2023/08/24 10:52:18;;;;;;;;;;;29.30;99.90;;;;;;5050542;28;20411;-67
2023/08/24 10:54:48;;;;;;;;;;;29.30;99.90;;;;;;5050679;28;20379;-67
2023/08/24 10:57:20;;;;;;;;;;;29.20;99.90;;;;;;5050930;28;19925;-67
2023/08/24 11:00:05;;;;;;;;;;;29.20;99.90;;;;;;5050640;28;20427;-67
2023/08/24 11:02:43;;;;;;;;;;;29.20;99.90;;;;;;5050833;28;19925;-68
2023/08/24 11:05:18;;;;;;;;;;;29.10;99.90;;;;;;5042696;28;19931;-67
2023/08/24 11:07:50;;;;;;;;;;;29.00;99.90;;;;;;5050943;28;19925;-67
2023/08/24 11:10:19;;;;;;;;;;;29.10;99.90;;;;;;5050709;28;19925;-67
2023/08/24 11:13:05;;;;;;;;;;;29.30;99.90;;;;;;5050483;28;20520;-67
2023/08/24 11:15:33;;;;;;;;;;;29.50;99.90;;;;;;5050783;28;19986;-67
2023/08/24 11:18:24;;;;;;;;;;;29.80;99.90;;;;;;5050548;28;20025;-67
2023/08/24 11:20:53;;;;;;;;;;;30.00;99.90;;;;;;5051180;28;19932;-67
2023/08/24 11:23:23;;;;;;;;;;;30.20;99.90;;;;;;5054252;28;20403;-67
2023/08/24 11:25:54;;;;;;;;;;;30.50;99.90;;;;;;5054402;28;19933;-67
2023/08/24 11:28:23;;;;;;;;;;;30.50;99.90;;;;;;5054558;28;19925;-67
2023/08/24 11:30:51;;;;;;;;;;;30.40;99.90;;;;;;5054085;28;19925;-67
2023/08/24 11:33:28;;;;;;;;;;;30.60;99.90;;;;;;5054041;28;19925;-67
2023/08/24 11:35:55;;;;;;;;;;;30.50;99.90;;;;;;5054203;28;19924;-67
2023/08/24 11:38:25;;;;;;;;;;;30.50;99.90;;;;;;5039869;28;19925;-67
2023/08/24 11:40:53;;;;;;;;;;;30.60;99.90;;;;;;5042188;28;19925;-67
2023/08/24 11:43:27;;;;;;;;;;;30.60;99.50;;;;;;5038475;28;19929;-68
2023/08/24 11:45:55;;;;;;;;;;;30.70;99.90;;;;;;5053775;28;20023;-67
2023/08/24 11:48:24;;;;;;;;;;;30.70;99.20;;;;;;5053927;28;19928;-67
2023/08/24 11:50:54;;;;;;;;;;;30.60;99.50;;;;;;5053742;28;19925;-67
2023/08/24 11:53:22;;;;;;;;;;;30.60;99.80;;;;;;5053622;28;19936;-67
2023/08/24 11:55:53;;;;;;;;;;;30.50;99.60;;;;;;5053775;28;19931;-67
2023/08/24 11:58:32;;;;;;;;;;;30.70;99.90;;;;;;5053972;28;20334;-67
2023/08/24 12:01:01;;;;;;;;;;;30.50;99.60;;;;;;5053365;28;20387;-67
2023/08/24 12:03:29;;;;;;;;;;;30.40;99.90;;;;;;5053557;28;20418;-67
2023/08/24 12:05:59;;;;;;;;;;;30.20;99.90;;;;;;5053643;28;20371;-67
2023/08/24 12:08:27;;;;;;;;;;;30.20;99.90;;;;;;5053674;28;19986;-67
2023/08/24 12:10:56;;;;;;;;;;;30.30;99.90;;;;;;5053183;28;19925;-67
2023/08/24 12:13:24;;;;;;;;;;;30.00;99.90;;;;;;5053376;28;20387;-67
2023/08/24 12:15:53;;;;;;;;;;;29.90;99.90;;;;;;5053433;28;19933;-67
2023/08/24 12:18:21;;;;;;;;;;;29.90;99.90;;;;;;5053553;28;19925;-67
2023/08/24 12:20:49;;;;;;;;;;;29.90;99.90;;;;;;5053391;28;19924;-67
2023/08/24 12:23:17;;;;;;;;;;;29.90;99.90;;;;;;5053133;28;20364;-67
2023/08/24 12:25:46;;;;;;;;;;;29.90;99.90;;;;;;5053253;28;20301;-67
2023/08/24 12:28:15;;;;;;;;;;;29.60;99.90;;;;;;5053204;28;20280;-67
2023/08/24 12:30:44;;;;;;;;;;;29.50;99.90;;;;;;5053084;28;19978;-67
2023/08/24 12:33:21;;;;;;;;;;;29.50;99.90;;;;;;5052351;28;20450;-67
2023/08/24 12:35:49;;;;;;;;;;;29.50;99.90;;;;;;5053228;28;19924;-67
2023/08/24 12:38:17;;;;;;;;;;;29.40;99.90;;;;;;5052850;28;20277;-67
2023/08/24 12:40:45;;;;;;;;;;;29.30;99.90;;;;;;5052903;28;20388;-67
2023/08/24 12:43:12;;;;;;;;;;;29.30;99.90;;;;;;5052911;28;19932;-67
2023/08/24 12:45:42;;;;;;;;;;;29.50;99.90;;;;;;5052908;28;20409;-68
2023/08/24 12:48:10;;;;;;;;;;;29.60;99.90;;;;;;5052872;28;19967;-67
2023/08/24 12:50:39;;;;;;;;;;;29.70;99.90;;;;;;5052575;28;20015;-67
2023/08/24 12:53:07;;;;;;;;;;;29.60;99.90;;;;;;5052717;28;19931;-67
2023/08/24 12:55:36;;;;;;;;;;;29.60;99.90;;;;;;5052490;28;19925;-67
2023/08/24 12:58:04;;;;;;;;;;;29.70;99.90;;;;;;5052749;28;19925;-67
2023/08/24 13:00:33;;;;;;;;;;;29.60;99.90;;;;;;5052383;28;20469;-67
2023/08/24 13:03:02;;;;;;;;;;;29.70;99.90;;;;;;5051483;28;20323;-67
2023/08/24 13:05:30;;;;;;;;;;;29.70;99.90;;;;;;5032595;28;19933;-67
2023/08/24 13:07:59;;;;;;;;;;;29.70;99.90;;;;;;5041240;28;19933;-67
2023/08/24 13:10:27;;;;;;;;;;;29.90;99.90;;;;;;5052432;28;19924;-67
2023/08/24 13:12:56;;;;;;;;;;;29.90;99.90;;;;;;5052279;28;19931;-67
2023/08/24 13:15:24;;;;;;;;;;;29.80;99.90;;;;;;5044352;28;19932;-67
2023/08/24 13:17:51;;;;;;;;;;;29.90;99.90;;;;;;5052305;28;19947;-67
2023/08/24 13:20:21;;;;;;;;;;;29.70;99.90;;;;;;5051971;28;20031;-67
2023/08/24 13:22:49;;;;;;;;;;;29.60;99.90;;;;;;5052195;28;19925;-67
2023/08/24 13:25:17;;;;;;;;;;;29.40;99.90;;;;;;5051888;28;19924;-67
2023/08/24 13:27:44;;;;;;;;;;;29.40;99.90;;;;;;5052211;28;19979;-67
2023/08/24 13:30:12;;;;;;;;;;;29.40;99.90;;;;;;5051608;28;20327;-67
2023/08/24 13:32:40;;;;;;;;;;;29.30;99.90;;;;;;5051920;28;19924;-67
2023/08/24 13:35:09;;;;;;;;;;;29.10;99.90;;;;;;5051624;28;20198;-67
2023/08/24 13:37:38;;;;;;;;;;;29.20;99.90;;;;;;5051950;28;19946;-67
2023/08/24 13:40:07;;;;;;;;;;;29.00;99.90;;;;;;5051716;28;19924;-67
2023/08/24 13:42:35;;;;;;;;;;;29.10;99.90;;;;;;5051911;28;19994;-67
2023/08/24 13:45:04;;;;;;;;;;;29.10;99.90;;;;;;5050760;28;19928;-68
2023/08/24 13:47:32;;;;;;;;;;;29.10;99.90;;;;;;5052106;28;20011;-67
2023/08/24 13:50:00;;;;;;;;;;;29.20;99.90;;;;;;5051463;28;19999;-67
2023/08/24 13:52:28;;;;;;;;;;;29.20;99.90;;;;;;5051752;28;19929;-67
2023/08/24 13:54:57;;;;;;;;;;;29.20;99.90;;;;;;5051324;28;19925;-68
2023/08/24 13:57:37;;;;;;;;;;;29.20;99.90;;;;;;5051819;28;20141;-67
2023/08/24 14:00:08;;;;;;;;;;;29.20;99.90;;;;;;5051292;28;20086;-67
2023/08/24 14:02:36;;;;;;;;;;;29.10;99.90;;;;;;5051539;28;19991;-67
2023/08/24 14:05:06;;;;;;;;;;;29.10;99.90;;;;;;5051141;28;20039;-67
2023/08/24 14:07:33;;;;;;;;;;;29.00;99.90;;;;;;5051475;28;19928;-67
2023/08/24 14:10:02;;;;;;;;;;;28.90;99.90;;;;;;5051358;28;19933;-67
2023/08/24 14:12:33;;;;;;;;;;;28.60;99.90;;;;;;5051975;28;19931;-67
2023/08/24 14:15:01;;;;;;;;;;;28.50;99.90;;;;;;5051236;28;19929;-67
2023/08/24 14:17:29;;;;;;;;;;;28.50;99.90;;;;;;5043430;28;19924;-67
2023/08/24 14:19:57;;;;;;;;;;;28.40;99.90;;;;;;5051209;28;19924;-67
2023/08/24 14:22:26;;;;;;;;;;;28.10;99.90;;;;;;5051099;28;19928;-67
2023/08/24 14:24:53;;;;;;;;;;;28.00;99.90;;;;;;5050825;28;20408;-67